Time;durP1;ratioP1;P1;durP2;ratioP2;P2;SDS_P1;SDS_P2;PMS_P1;PMS_P2;Temp;Humidity;BMP_temperature;BMP_pressure;BME280_temperature;BME280_humidity;BME280_pressure;Samples;Min_cycle;Max_cycle;Signal;HPM_P1;HPM_P2
2022/05/27 19:09:38;;;;;;;10.85;1.75;;;;;;;;;;6226354;22;884640;-64
2022/05/27 19:12:05;;;;;;;6.47;1.55;;;;;;;;;;6199166;22;1533058;-65
2022/05/27 19:14:31;;;;;;;9.60;2.00;;;;;;;;;;6257358;22;20114;-64
2022/05/27 19:22:21;;;;;;;12.80;1.80;;;;;;;;;;6166097;23;20247;-65
2022/05/27 19:24:47;;;;;;;8.60;1.75;;;;;;;;;;6167117;23;20025;-66
2022/05/27 19:27:14;;;;;;;7.93;1.40;;;;;;;;;;6167050;23;20031;-65
2022/05/27 19:29:42;;;;;;;8.27;1.45;;;;;;;;;;6162552;23;20033;-65
2022/05/27 19:32:08;;;;;;;6.30;1.20;;;;;;;;;;6167212;23;20104;-63
2022/05/27 19:34:35;;;;;;;8.57;1.60;;;;;;;;;;6165950;23;20090;-66
2022/05/27 19:37:01;;;;;;;6.25;1.40;;;;;;;;;;6166863;23;20687;-66
2022/05/27 19:39:28;;;;;;;7.32;1.42;;;;;;;;;;6168843;23;20035;-66
2022/05/27 19:41:54;;;;;;;5.80;1.30;;;;;;;;;;6164224;23;20033;-66
2022/05/27 19:44:21;;;;;;;9.60;1.52;;;;;;;;;;6152393;23;20040;-66
2022/05/27 19:46:47;;;;;;;8.18;1.75;;;;;;;;;;6168157;23;20025;-66
2022/05/27 19:49:13;;;;;;;8.50;1.55;;;;;;;;;;6167330;23;20111;-66
2022/05/27 19:51:42;;;;;;;9.68;1.67;;;;;;;;;;6175005;23;20076;-66
2022/05/27 19:54:08;;;;;;;;;;;;;;;;;;6167964;23;20079;-65
2022/05/27 19:56:35;;;;;;;11.20;1.85;;;;;;;;;;6175172;23;19920;-66
2022/05/27 20:07:19;;;;;;;7.28;1.50;;;;;;;;;;6174320;23;20056;-65
2022/05/27 20:09:45;;;;;;;7.25;1.40;;;;;;;;;;6182955;23;20017;-66
2022/05/27 20:12:12;;;;;;;8.68;1.50;;;;;;;;;;6168548;23;20024;-66
2022/05/27 20:14:38;;;;;;;9.95;1.80;;;;;;;;;;6176927;23;20105;-64
2022/05/27 20:17:05;;;;;;;7.97;1.70;;;;;;;;;;6174646;23;20101;-65
2022/05/27 20:19:31;;;;;;;8.52;1.75;;;;;;;;;;6183149;23;20534;-65
2022/05/27 20:21:57;;;;;;;7.97;1.77;;;;;;;;;;6175335;23;20047;-65
2022/05/27 20:24:24;;;;;;;9.57;1.38;;;;;;;;;;6182501;23;20100;-65
2022/05/27 20:26:50;;;;;;;5.32;1.63;;;;;;;;;;6176868;23;20051;-66
2022/05/27 20:29:18;;;;;;;13.93;1.75;;;;;;;;;;6167698;23;20027;-65
2022/05/27 20:31:44;;;;;;;6.73;1.47;;;;;;;;;;6182511;23;20092;-65
2022/05/27 20:34:11;;;;;;;8.52;1.60;;;;;;;;;;6175341;23;20020;-66
2022/05/27 20:39:23;;;;;;;12.82;1.80;;;;;;;;;;6171702;23;20423;-65
2022/05/27 20:41:49;;;;;;;7.88;1.70;;;;;;;;;;6173765;23;20028;-66
2022/05/27 20:44:16;;;;;;;7.32;1.80;;;;;;;;;;6174469;23;20096;-64
2022/05/27 20:46:42;;;;;;;8.38;1.63;;;;;;;;;;6182832;23;20057;-65
2022/05/27 20:49:09;;;;;;;9.20;1.88;;;;;;;;;;6180383;23;20021;-65
2022/05/27 20:51:36;;;;;;;10.43;1.85;;;;;;;;;;6177946;23;20101;-66
2022/05/27 20:54:06;;;;;;;9.82;1.90;;;;;;;;;;6177000;23;20060;-65
2022/05/27 20:56:37;;;;;;;13.52;1.90;;;;;;;;;;6170048;23;20033;-66
2022/05/27 20:59:04;;;;;;;10.43;1.60;;;;;;;;;;6183124;23;20064;-66
2022/05/27 21:01:36;;;;;;;7.60;2.03;;;;;;;;;;6175833;23;20097;-66
2022/05/27 21:04:03;;;;;;;13.73;2.08;;;;;;;;;;6182789;23;20021;-65
2022/05/27 21:06:29;;;;;;;11.00;2.03;;;;;;;;;;6148602;23;20021;-66
2022/05/27 21:08:57;;;;;;;13.27;2.40;;;;;;;;;;6174074;23;20104;-64
2022/05/27 21:11:25;;;;;;;9.95;1.80;;;;;;;;;;6176143;23;20052;-65
2022/05/27 21:13:53;;;;;;;8.60;1.90;;;;;;;;;;6179193;23;20024;-65
2022/05/27 21:16:19;;;;;;;7.78;2.13;;;;;;;;;;6182339;23;20092;-66
2022/05/27 21:18:46;;;;;;;11.02;2.28;;;;;;;;;;6161944;23;20052;-65
2022/05/27 21:21:13;;;;;;;12.10;2.33;;;;;;;;;;6177572;23;20797;-65
2022/05/27 21:23:40;;;;;;;13.47;2.20;;;;;;;;;;6167347;23;20091;-65
2022/05/27 21:26:07;;;;;;;6.18;1.60;;;;;;;;;;6181475;23;20247;-65
2022/05/27 21:28:34;;;;;;;7.15;1.85;;;;;;;;;;6174829;23;20059;-64
2022/05/27 21:31:01;;;;;;;13.48;2.22;;;;;;;;;;6181576;23;20063;-66
2022/05/27 21:33:28;;;;;;;11.37;2.23;;;;;;;;;;6182013;23;20067;-65
2022/05/27 21:35:54;;;;;;;12.57;2.80;;;;;;;;;;6168499;23;20017;-66
2022/05/27 21:38:20;;;;;;;13.13;2.58;;;;;;;;;;6175385;23;20353;-65
2022/05/27 21:40:54;;;;;;;10.27;2.22;;;;;;;;;;6174796;23;20099;-65
2022/05/27 21:43:21;;;;;;;10.70;2.30;;;;;;;;;;6181098;23;20064;-65
2022/05/27 21:45:58;;;;;;;10.52;2.60;;;;;;;;;;6173983;23;20017;-66
2022/05/27 21:48:25;;;;;;;11.00;1.92;;;;;;;;;;6181088;23;20017;-65
2022/05/27 21:50:51;;;;;;;8.98;1.58;;;;;;;;;;6167008;23;20608;-67
2022/05/27 21:53:19;;;;;;;13.43;2.20;;;;;;;;;;6177027;23;20104;-65
2022/05/27 21:55:45;;;;;;;12.93;2.33;;;;;;;;;;6181855;23;20024;-65
2022/05/27 21:58:11;;;;;;;11.40;2.35;;;;;;;;;;6174027;23;20028;-65
2022/05/27 22:00:38;;;;;;;11.10;2.17;;;;;;;;;;6181488;23;20414;-66
2022/05/27 22:03:05;;;;;;;12.13;2.00;;;;;;;;;;6171082;23;20450;-65
2022/05/27 22:05:32;;;;;;;8.45;2.15;;;;;;;;;;6174829;23;20112;-65
2022/05/27 22:07:58;;;;;;;13.13;2.47;;;;;;;;;;6173809;23;20031;-65
2022/05/27 22:13:09;;;;;;;12.40;2.28;;;;;;;;;;6173393;23;20096;-65
2022/05/27 22:15:36;;;;;;;11.68;2.53;;;;;;;;;;6182139;23;20092;-66
2022/05/27 22:18:02;;;;;;;11.95;2.40;;;;;;;;;;6173946;23;20021;-65
2022/05/27 22:20:28;;;;;;;13.70;2.50;;;;;;;;;;6170905;23;20064;-65
2022/05/27 22:22:55;;;;;;;11.63;2.28;;;;;;;;;;6181768;23;20056;-65
2022/05/27 22:25:21;;;;;;;11.32;2.47;;;;;;;;;;6174227;23;20056;-65
2022/05/27 22:27:48;;;;;;;10.52;2.30;;;;;;;;;;6182707;23;20454;-66
2022/05/27 22:30:15;;;;;;;15.25;2.70;;;;;;;;;;6174002;23;20463;-65
2022/05/27 22:32:44;;;;;;;13.32;2.95;;;;;;;;;;6175867;23;20099;-66
2022/05/27 22:35:13;;;;;;;10.70;2.42;;;;;;;;;;6168797;23;20027;-65
2022/05/27 22:37:39;;;;;;;;;;;;;;;;;;6181676;23;20103;-66
2022/05/27 22:40:06;;;;;;;9.15;2.17;;;;;;;;;;6182078;23;19916;-65
2022/05/27 22:42:32;;;;;;;13.63;2.58;;;;;;;;;;6174654;23;20060;-66
2022/05/27 22:44:58;;;;;;;15.18;2.83;;;;;;;;;;6178624;23;20032;-65
2022/05/27 22:47:25;;;;;;;11.50;2.20;;;;;;;;;;6165831;23;20401;-67
2022/05/27 22:49:51;;;;;;;9.32;2.42;;;;;;;;;;6180991;23;20071;-66
2022/05/27 22:52:18;;;;;;;13.02;2.25;;;;;;;;;;6174361;23;20762;-65
2022/05/27 22:54:45;;;;;;;12.80;2.30;;;;;;;;;;6181873;23;20398;-64
2022/05/27 22:57:16;;;;;;;10.57;2.17;;;;;;;;;;6181456;23;20109;-66
2022/05/27 22:59:44;;;;;;;15.02;2.50;;;;;;;;;;6171966;23;20032;-65
2022/05/27 23:02:13;;;;;;;18.23;3.20;;;;;;;;;;6175262;23;20029;-65
2022/05/27 23:04:40;;;;;;;9.82;2.40;;;;;;;;;;6173629;23;20063;-65
2022/05/27 23:07:07;;;;;;;8.02;2.22;;;;;;;;;;6181342;23;20497;-66
2022/05/27 23:09:33;;;;;;;8.27;1.98;;;;;;;;;;6173670;23;20056;-65
2022/05/27 23:12:04;;;;;;;6.88;1.88;;;;;;;;;;6182022;23;20442;-65
2022/05/27 23:20:16;;;;;;;9.95;2.78;;;;;;;;;;6168652;23;20025;-66
2022/05/27 23:22:43;;;;;;;10.40;2.20;;;;;;;;;;6183927;23;20446;-65
2022/05/27 23:25:09;;;;;;;12.27;2.20;;;;;;;;;;6175426;23;20021;-65
2022/05/27 23:27:35;;;;;;;15.10;2.47;;;;;;;;;;6177359;23;20100;-64
2022/05/27 23:30:02;;;;;;;13.32;1.90;;;;;;;;;;6177708;23;20102;-65
2022/05/27 23:32:28;;;;;;;9.57;2.08;;;;;;;;;;6175711;23;20059;-66
2022/05/27 23:34:54;;;;;;;13.18;2.53;;;;;;;;;;6183955;23;20100;-65
2022/05/27 23:37:20;;;;;;;10.23;2.20;;;;;;;;;;6148602;23;20100;-66
2022/05/27 23:39:47;;;;;;;16.50;3.20;;;;;;;;;;6183963;23;20399;-65
2022/05/27 23:42:13;;;;;;;11.85;2.72;;;;;;;;;;6168720;23;20063;-65
2022/05/27 23:44:40;;;;;;;9.18;2.20;;;;;;;;;;6177789;23;20450;-66
2022/05/27 23:47:06;;;;;;;8.82;2.38;;;;;;;;;;6183647;23;20059;-65
2022/05/27 23:49:32;;;;;;;14.02;2.47;;;;;;;;;;6175579;23;20027;-65
2022/05/27 23:51:59;;;;;;;10.45;2.22;;;;;;;;;;6183591;23;20025;-65
2022/05/27 23:54:25;;;;;;;14.50;2.25;;;;;;;;;;6174559;23;20100;-66
2022/05/27 23:56:52;;;;;;;8.75;2.08;;;;;;;;;;6173705;23;20044;-65
2022/05/27 23:59:18;;;;;;;13.98;2.70;;;;;;;;;;6174186;23;20810;-65
